ENTR weather

St Olav's Hospital Helipad
Trondheim, Sør-Trøndelag, Norway

Public forecast

Using degrees Celsius for public forecast. Weather courtesy of forecast.io.

Closest aviation weather report (METAR) to St Olav's Hospital Helipad

Closest report is Trondheim Airport Værnes, 14.6 nm (27.1 km) E. Retrieved 2020/06/07 03:20 UTC (25 minutes ago):

ENVA 070320Z 27018KT 8000 DZ SCT006 BKN014 10/10 Q0990 RMK WIND 670FT 28024KT

Closest aviation forecast (TAF) to St Olav's Hospital Helipad

Forecast is more than 6 hours old.

Closest forecast is Trondheim Airport Værnes, 14.6 nm (27.1 km) E. Retrieved 2020/06/06 18:57 UTC (9 hours ago):

TAF ENVA 061700Z 0618/0718 09010KT 9999 BKN040 PROB30 TEMPO 0618/0621 SHRA SCT020CB BECMG 0621/0624 VRB08KT TEMPO 0622/0712 4000 SHRA BKN006 SCT015CB BECMG 0702/0704 28015KT BECMG 0712/0715 22010KT